sensor_id;sensor_type;location;lat;lon;timestamp;P1;durP1;ratioP1;P2;durP2;ratioP2
6651;SDS011;3362;50.892;10.692;2023-01-28T00:02:05;10.52;;;2.78;;
6651;SDS011;3362;50.892;10.692;2023-01-28T00:04:32;3.92;;;2.63;;
6651;SDS011;3362;50.892;10.692;2023-01-28T00:06:59;5.88;;;3.47;;
6651;SDS011;3362;50.892;10.692;2023-01-28T00:09:25;4.97;;;2.47;;
6651;SDS011;3362;50.892;10.692;2023-01-28T00:11:51;6.55;;;2.38;;
6651;SDS011;3362;50.892;10.692;2023-01-28T00:14:17;8.47;;;3.57;;
6651;SDS011;3362;50.892;10.692;2023-01-28T00:16:43;4.00;;;2.70;;
6651;SDS011;3362;50.892;10.692;2023-01-28T00:19:10;4.90;;;2.60;;
6651;SDS011;3362;50.892;10.692;2023-01-28T00:21:37;5.57;;;3.25;;
6651;SDS011;3362;50.892;10.692;2023-01-28T00:24:04;5.97;;;2.92;;
6651;SDS011;3362;50.892;10.692;2023-01-28T00:26:33;7.70;;;3.40;;
6651;SDS011;3362;50.892;10.692;2023-01-28T00:28:59;6.65;;;3.90;;
6651;SDS011;3362;50.892;10.692;2023-01-28T00:31:26;4.10;;;2.80;;
6651;SDS011;3362;50.892;10.692;2023-01-28T00:33:53;6.10;;;3.28;;
6651;SDS011;3362;50.892;10.692;2023-01-28T00:36:20;6.73;;;3.30;;
6651;SDS011;3362;50.892;10.692;2023-01-28T00:38:51;5.18;;;3.58;;
6651;SDS011;3362;50.892;10.692;2023-01-28T00:41:19;9.38;;;3.53;;
6651;SDS011;3362;50.892;10.692;2023-01-28T00:43:46;4.82;;;2.80;;
6651;SDS011;3362;50.892;10.692;2023-01-28T00:46:12;7.22;;;4.00;;
6651;SDS011;3362;50.892;10.692;2023-01-28T00:48:39;5.57;;;3.42;;
6651;SDS011;3362;50.892;10.692;2023-01-28T00:51:07;7.03;;;3.60;;
6651;SDS011;3362;50.892;10.692;2023-01-28T00:53:33;5.75;;;3.63;;
6651;SDS011;3362;50.892;10.692;2023-01-28T00:56:02;5.18;;;3.53;;
6651;SDS011;3362;50.892;10.692;2023-01-28T00:58:28;6.15;;;3.63;;
6651;SDS011;3362;50.892;10.692;2023-01-28T01:00:54;4.45;;;3.03;;
6651;SDS011;3362;50.892;10.692;2023-01-28T01:03:21;6.32;;;3.47;;
6651;SDS011;3362;50.892;10.692;2023-01-28T01:05:47;5.32;;;3.33;;
6651;SDS011;3362;50.892;10.692;2023-01-28T01:08:13;6.40;;;3.27;;
6651;SDS011;3362;50.892;10.692;2023-01-28T01:10:39;11.73;;;3.87;;
6651;SDS011;3362;50.892;10.692;2023-01-28T01:13:07;4.55;;;3.42;;
6651;SDS011;3362;50.892;10.692;2023-01-28T01:15:34;8.03;;;3.43;;
6651;SDS011;3362;50.892;10.692;2023-01-28T01:18:00;7.70;;;3.83;;
6651;SDS011;3362;50.892;10.692;2023-01-28T01:20:27;7.97;;;3.60;;
6651;SDS011;3362;50.892;10.692;2023-01-28T01:22:54;6.60;;;3.20;;
6651;SDS011;3362;50.892;10.692;2023-01-28T01:25:21;10.02;;;3.90;;
6651;SDS011;3362;50.892;10.692;2023-01-28T01:27:48;6.90;;;3.07;;
6651;SDS011;3362;50.892;10.692;2023-01-28T01:32:43;9.70;;;3.23;;
6651;SDS011;3362;50.892;10.692;2023-01-28T01:35:09;9.87;;;3.83;;
6651;SDS011;3362;50.892;10.692;2023-01-28T01:37:35;6.88;;;3.33;;
6651;SDS011;3362;50.892;10.692;2023-01-28T01:40:02;6.10;;;3.30;;
6651;SDS011;3362;50.892;10.692;2023-01-28T01:42:29;5.32;;;3.35;;
6651;SDS011;3362;50.892;10.692;2023-01-28T01:44:56;9.10;;;3.08;;
6651;SDS011;3362;50.892;10.692;2023-01-28T01:47:23;9.43;;;3.70;;
6651;SDS011;3362;50.892;10.692;2023-01-28T01:49:51;7.77;;;3.50;;
6651;SDS011;3362;50.892;10.692;2023-01-28T01:52:19;6.15;;;3.72;;
6651;SDS011;3362;50.892;10.692;2023-01-28T01:54:48;6.37;;;3.73;;
6651;SDS011;3362;50.892;10.692;2023-01-28T01:57:18;7.13;;;3.50;;
6651;SDS011;3362;50.892;10.692;2023-01-28T01:59:47;5.43;;;3.47;;
6651;SDS011;3362;50.892;10.692;2023-01-28T02:02:13;12.10;;;4.07;;
6651;SDS011;3362;50.892;10.692;2023-01-28T02:04:41;9.33;;;4.03;;
6651;SDS011;3362;50.892;10.692;2023-01-28T02:07:14;5.22;;;3.33;;
6651;SDS011;3362;50.892;10.692;2023-01-28T02:09:40;10.20;;;3.47;;
6651;SDS011;3362;50.892;10.692;2023-01-28T02:12:07;7.67;;;3.17;;
6651;SDS011;3362;50.892;10.692;2023-01-28T02:14:35;7.78;;;3.42;;
6651;SDS011;3362;50.892;10.692;2023-01-28T02:17:03;7.40;;;3.63;;
6651;SDS011;3362;50.892;10.692;2023-01-28T02:19:31;6.93;;;2.97;;
6651;SDS011;3362;50.892;10.692;2023-01-28T02:22:01;9.40;;;4.23;;
6651;SDS011;3362;50.892;10.692;2023-01-28T02:27:20;7.68;;;3.60;;
6651;SDS011;3362;50.892;10.692;2023-01-28T02:29:51;5.57;;;3.47;;
6651;SDS011;3362;50.892;10.692;2023-01-28T02:32:22;5.93;;;3.43;;
6651;SDS011;3362;50.892;10.692;2023-01-28T02:34:50;8.07;;;3.60;;
6651;SDS011;3362;50.892;10.692;2023-01-28T02:37:19;6.63;;;3.33;;
6651;SDS011;3362;50.892;10.692;2023-01-28T02:39:47;5.95;;;2.88;;
6651;SDS011;3362;50.892;10.692;2023-01-28T02:42:14;7.90;;;3.93;;
6651;SDS011;3362;50.892;10.692;2023-01-28T02:44:41;9.00;;;3.03;;
6651;SDS011;3362;50.892;10.692;2023-01-28T02:47:10;5.17;;;2.70;;
6651;SDS011;3362;50.892;10.692;2023-01-28T02:49:54;7.40;;;3.80;;
6651;SDS011;3362;50.892;10.692;2023-01-28T02:52:28;6.47;;;2.53;;
6651;SDS011;3362;50.892;10.692;2023-01-28T02:55:15;8.70;;;2.80;;
6651;SDS011;3362;50.892;10.692;2023-01-28T02:57:44;4.45;;;3.17;;
6651;SDS011;3362;50.892;10.692;2023-01-28T03:00:13;6.53;;;3.60;;
6651;SDS011;3362;50.892;10.692;2023-01-28T03:02:45;7.23;;;2.43;;
6651;SDS011;3362;50.892;10.692;2023-01-28T03:05:19;9.45;;;3.42;;
6651;SDS011;3362;50.892;10.692;2023-01-28T03:07:48;8.37;;;3.57;;
6651;SDS011;3362;50.892;10.692;2023-01-28T03:10:16;3.80;;;3.20;;
6651;SDS011;3362;50.892;10.692;2023-01-28T03:12:42;7.13;;;3.50;;
6651;SDS011;3362;50.892;10.692;2023-01-28T03:15:27;7.47;;;3.50;;
6651;SDS011;3362;50.892;10.692;2023-01-28T03:18:14;8.80;;;3.17;;
6651;SDS011;3362;50.892;10.692;2023-01-28T03:21:01;6.05;;;3.33;;
6651;SDS011;3362;50.892;10.692;2023-01-28T03:23:48;8.52;;;3.08;;
6651;SDS011;3362;50.892;10.692;2023-01-28T03:26:34;7.25;;;3.45;;
6651;SDS011;3362;50.892;10.692;2023-01-28T03:29:19;7.38;;;2.97;;
6651;SDS011;3362;50.892;10.692;2023-01-28T03:32:03;6.80;;;3.17;;
6651;SDS011;3362;50.892;10.692;2023-01-28T03:34:49;5.93;;;2.55;;
6651;SDS011;3362;50.892;10.692;2023-01-28T03:37:33;4.83;;;2.93;;
6651;SDS011;3362;50.892;10.692;2023-01-28T03:40:00;6.43;;;3.15;;
6651;SDS011;3362;50.892;10.692;2023-01-28T03:42:29;6.82;;;3.08;;
6651;SDS011;3362;50.892;10.692;2023-01-28T03:44:55;5.30;;;2.72;;
6651;SDS011;3362;50.892;10.692;2023-01-28T03:47:22;5.32;;;2.78;;
6651;SDS011;3362;50.892;10.692;2023-01-28T03:49:51;5.95;;;2.58;;
6651;SDS011;3362;50.892;10.692;2023-01-28T03:52:18;8.38;;;3.08;;
6651;SDS011;3362;50.892;10.692;2023-01-28T03:54:45;7.30;;;3.00;;
6651;SDS011;3362;50.892;10.692;2023-01-28T03:57:12;4.65;;;2.70;;
6651;SDS011;3362;50.892;10.692;2023-01-28T03:59:39;4.25;;;2.80;;
6651;SDS011;3362;50.892;10.692;2023-01-28T04:02:05;5.37;;;2.97;;
6651;SDS011;3362;50.892;10.692;2023-01-28T04:04:32;12.40;;;2.97;;
6651;SDS011;3362;50.892;10.692;2023-01-28T04:06:59;6.68;;;3.22;;
6651;SDS011;3362;50.892;10.692;2023-01-28T04:09:25;12.90;;;3.75;;
6651;SDS011;3362;50.892;10.692;2023-01-28T04:11:51;4.40;;;2.90;;
6651;SDS011;3362;50.892;10.692;2023-01-28T04:14:18;6.85;;;2.92;;
6651;SDS011;3362;50.892;10.692;2023-01-28T04:16:44;11.53;;;3.83;;
6651;SDS011;3362;50.892;10.692;2023-01-28T04:19:10;4.47;;;3.20;;
6651;SDS011;3362;50.892;10.692;2023-01-28T04:21:37;7.22;;;3.10;;
6651;SDS011;3362;50.892;10.692;2023-01-28T04:24:05;4.83;;;3.33;;
6651;SDS011;3362;50.892;10.692;2023-01-28T04:26:31;5.97;;;2.95;;
6651;SDS011;3362;50.892;10.692;2023-01-28T04:28:58;6.97;;;3.33;;
6651;SDS011;3362;50.892;10.692;2023-01-28T04:31:24;7.33;;;3.37;;
6651;SDS011;3362;50.892;10.692;2023-01-28T04:33:50;12.63;;;3.17;;
6651;SDS011;3362;50.892;10.692;2023-01-28T04:36:16;6.88;;;3.03;;
6651;SDS011;3362;50.892;10.692;2023-01-28T04:38:42;4.97;;;2.77;;
6651;SDS011;3362;50.892;10.692;2023-01-28T04:41:10;6.30;;;3.13;;
6651;SDS011;3362;50.892;10.692;2023-01-28T04:43:36;7.53;;;2.83;;
6651;SDS011;3362;50.892;10.692;2023-01-28T04:46:02;6.03;;;3.03;;
6651;SDS011;3362;50.892;10.692;2023-01-28T04:48:29;4.60;;;2.83;;
6651;SDS011;3362;50.892;10.692;2023-01-28T04:50:56;4.90;;;2.65;;
6651;SDS011;3362;50.892;10.692;2023-01-28T04:53:22;9.13;;;3.70;;
6651;SDS011;3362;50.892;10.692;2023-01-28T04:55:48;7.78;;;3.50;;
6651;SDS011;3362;50.892;10.692;2023-01-28T04:58:16;5.47;;;3.35;;
6651;SDS011;3362;50.892;10.692;2023-01-28T05:00:42;6.70;;;3.22;;
6651;SDS011;3362;50.892;10.692;2023-01-28T05:03:08;5.90;;;2.73;;
6651;SDS011;3362;50.892;10.692;2023-01-28T05:05:34;6.00;;;2.47;;
6651;SDS011;3362;50.892;10.692;2023-01-28T05:08:01;5.13;;;2.37;;
6651;SDS011;3362;50.892;10.692;2023-01-28T05:10:27;4.80;;;3.00;;
6651;SDS011;3362;50.892;10.692;2023-01-28T05:12:53;5.03;;;3.17;;
6651;SDS011;3362;50.892;10.692;2023-01-28T05:15:21;4.68;;;2.83;;
6651;SDS011;3362;50.892;10.692;2023-01-28T05:17:47;7.13;;;3.30;;
6651;SDS011;3362;50.892;10.692;2023-01-28T05:20:13;5.60;;;2.63;;
6651;SDS011;3362;50.892;10.692;2023-01-28T05:22:39;3.47;;;2.30;;
6651;SDS011;3362;50.892;10.692;2023-01-28T05:25:06;4.07;;;2.53;;
6651;SDS011;3362;50.892;10.692;2023-01-28T05:27:33;3.90;;;2.40;;
6651;SDS011;3362;50.892;10.692;2023-01-28T05:29:59;4.60;;;2.00;;
6651;SDS011;3362;50.892;10.692;2023-01-28T05:32:26;3.20;;;1.93;;
6651;SDS011;3362;50.892;10.692;2023-01-28T05:34:52;4.15;;;1.95;;
6651;SDS011;3362;50.892;10.692;2023-01-28T05:37:19;5.78;;;2.45;;
6651;SDS011;3362;50.892;10.692;2023-01-28T05:39:45;3.67;;;1.63;;
6651;SDS011;3362;50.892;10.692;2023-01-28T05:42:11;5.43;;;2.20;;
6651;SDS011;3362;50.892;10.692;2023-01-28T05:44:39;4.10;;;2.00;;
6651;SDS011;3362;50.892;10.692;2023-01-28T05:47:05;5.97;;;2.33;;
6651;SDS011;3362;50.892;10.692;2023-01-28T05:49:32;3.40;;;2.45;;
6651;SDS011;3362;50.892;10.692;2023-01-28T05:51:59;5.97;;;2.03;;
6651;SDS011;3362;50.892;10.692;2023-01-28T05:54:26;3.95;;;1.65;;
6651;SDS011;3362;50.892;10.692;2023-01-28T05:56:52;4.73;;;2.00;;
6651;SDS011;3362;50.892;10.692;2023-01-28T05:59:18;2.53;;;1.80;;
6651;SDS011;3362;50.892;10.692;2023-01-28T06:01:45;2.63;;;1.57;;
6651;SDS011;3362;50.892;10.692;2023-01-28T06:04:12;6.77;;;2.00;;
6651;SDS011;3362;50.892;10.692;2023-01-28T06:06:39;5.00;;;1.80;;
6651;SDS011;3362;50.892;10.692;2023-01-28T06:09:05;4.23;;;1.90;;
6651;SDS011;3362;50.892;10.692;2023-01-28T06:11:32;3.33;;;1.70;;
6651;SDS011;3362;50.892;10.692;2023-01-28T06:13:58;3.20;;;2.10;;
6651;SDS011;3362;50.892;10.692;2023-01-28T06:16:24;7.75;;;2.47;;
6651;SDS011;3362;50.892;10.692;2023-01-28T06:18:50;3.20;;;1.97;;
6651;SDS011;3362;50.892;10.692;2023-01-28T06:21:16;4.30;;;2.43;;
6651;SDS011;3362;50.892;10.692;2023-01-28T06:23:44;4.23;;;2.43;;
6651;SDS011;3362;50.892;10.692;2023-01-28T06:26:10;3.38;;;1.75;;
6651;SDS011;3362;50.892;10.692;2023-01-28T06:28:36;2.33;;;1.57;;
6651;SDS011;3362;50.892;10.692;2023-01-28T06:31:03;2.10;;;1.23;;
6651;SDS011;3362;50.892;10.692;2023-01-28T06:33:29;4.43;;;1.70;;
6651;SDS011;3362;50.892;10.692;2023-01-28T06:35:56;1.88;;;1.20;;
6651;SDS011;3362;50.892;10.692;2023-01-28T06:38:22;2.90;;;1.87;;
6651;SDS011;3362;50.892;10.692;2023-01-28T06:40:53;2.23;;;1.63;;
6651;SDS011;3362;50.892;10.692;2023-01-28T06:43:20;1.77;;;1.07;;
6651;SDS011;3362;50.892;10.692;2023-01-28T06:45:51;1.70;;;0.90;;
6651;SDS011;3362;50.892;10.692;2023-01-28T06:48:17;2.30;;;1.07;;
6651;SDS011;3362;50.892;10.692;2023-01-28T06:50:45;1.77;;;0.80;;
6651;SDS011;3362;50.892;10.692;2023-01-28T06:53:11;0.73;;;0.47;;
6651;SDS011;3362;50.892;10.692;2023-01-28T06:55:37;1.88;;;0.80;;
6651;SDS011;3362;50.892;10.692;2023-01-28T06:58:05;1.33;;;0.80;;
6651;SDS011;3362;50.892;10.692;2023-01-28T07:00:31;0.85;;;0.68;;
6651;SDS011;3362;50.892;10.692;2023-01-28T07:02:58;1.23;;;0.98;;
6651;SDS011;3362;50.892;10.692;2023-01-28T07:05:24;1.23;;;0.98;;
6651;SDS011;3362;50.892;10.692;2023-01-28T07:07:50;0.77;;;0.75;;
6651;SDS011;3362;50.892;10.692;2023-01-28T07:10:17;3.50;;;1.50;;
6651;SDS011;3362;50.892;10.692;2023-01-28T07:12:43;1.77;;;1.20;;
6651;SDS011;3362;50.892;10.692;2023-01-28T07:15:11;1.60;;;0.90;;
6651;SDS011;3362;50.892;10.692;2023-01-28T07:17:39;1.85;;;1.52;;
6651;SDS011;3362;50.892;10.692;2023-01-28T07:20:06;2.65;;;1.60;;
6651;SDS011;3362;50.892;10.692;2023-01-28T07:22:32;4.73;;;2.73;;
6651;SDS011;3362;50.892;10.692;2023-01-28T07:24:58;5.60;;;2.63;;
6651;SDS011;3362;50.892;10.692;2023-01-28T07:27:25;4.93;;;2.70;;
6651;SDS011;3362;50.892;10.692;2023-01-28T07:29:51;3.17;;;1.98;;
6651;SDS011;3362;50.892;10.692;2023-01-28T07:32:18;3.97;;;1.63;;
6651;SDS011;3362;50.892;10.692;2023-01-28T07:34:45;4.13;;;2.10;;
6651;SDS011;3362;50.892;10.692;2023-01-28T07:37:11;3.60;;;1.73;;
6651;SDS011;3362;50.892;10.692;2023-01-28T07:39:37;1.73;;;1.40;;
6651;SDS011;3362;50.892;10.692;2023-01-28T07:42:03;1.80;;;1.13;;
6651;SDS011;3362;50.892;10.692;2023-01-28T07:44:29;4.77;;;1.30;;
6651;SDS011;3362;50.892;10.692;2023-01-28T07:46:56;4.45;;;1.38;;
6651;SDS011;3362;50.892;10.692;2023-01-28T07:49:23;2.60;;;1.30;;
6651;SDS011;3362;50.892;10.692;2023-01-28T07:51:49;3.13;;;1.70;;
6651;SDS011;3362;50.892;10.692;2023-01-28T07:54:15;3.40;;;1.90;;
6651;SDS011;3362;50.892;10.692;2023-01-28T07:56:42;2.93;;;1.60;;
6651;SDS011;3362;50.892;10.692;2023-01-28T07:59:08;3.30;;;1.60;;
6651;SDS011;3362;50.892;10.692;2023-01-28T08:01:34;1.80;;;1.47;;
6651;SDS011;3362;50.892;10.692;2023-01-28T08:04:00;5.90;;;1.60;;
6651;SDS011;3362;50.892;10.692;2023-01-28T08:06:28;1.35;;;1.08;;
6651;SDS011;3362;50.892;10.692;2023-01-28T08:08:54;2.10;;;1.20;;
6651;SDS011;3362;50.892;10.692;2023-01-28T08:11:20;2.00;;;1.23;;
6651;SDS011;3362;50.892;10.692;2023-01-28T08:13:47;3.13;;;1.83;;
6651;SDS011;3362;50.892;10.692;2023-01-28T08:16:13;1.33;;;0.98;;
6651;SDS011;3362;50.892;10.692;2023-01-28T08:18:40;3.53;;;1.27;;
6651;SDS011;3362;50.892;10.692;2023-01-28T08:21:06;2.50;;;1.40;;
6651;SDS011;3362;50.892;10.692;2023-01-28T08:23:33;1.80;;;1.20;;
6651;SDS011;3362;50.892;10.692;2023-01-28T08:25:59;2.70;;;1.33;;
6651;SDS011;3362;50.892;10.692;2023-01-28T08:28:26;3.55;;;1.67;;
6651;SDS011;3362;50.892;10.692;2023-01-28T08:30:52;2.15;;;1.30;;
6651;SDS011;3362;50.892;10.692;2023-01-28T08:33:18;1.70;;;1.13;;
6651;SDS011;3362;50.892;10.692;2023-01-28T08:35:45;4.95;;;2.70;;
6651;SDS011;3362;50.892;10.692;2023-01-28T08:38:11;3.80;;;2.10;;
6651;SDS011;3362;50.892;10.692;2023-01-28T08:40:40;4.67;;;2.53;;
6651;SDS011;3362;50.892;10.692;2023-01-28T08:43:06;5.00;;;2.47;;
6651;SDS011;3362;50.892;10.692;2023-01-28T08:45:32;5.60;;;2.30;;
6651;SDS011;3362;50.892;10.692;2023-01-28T08:48:00;8.88;;;2.63;;
6651;SDS011;3362;50.892;10.692;2023-01-28T08:50:27;3.85;;;2.60;;
6651;SDS011;3362;50.892;10.692;2023-01-28T08:52:57;5.72;;;2.75;;
6651;SDS011;3362;50.892;10.692;2023-01-28T08:55:23;3.83;;;2.33;;
6651;SDS011;3362;50.892;10.692;2023-01-28T08:57:51;6.45;;;2.15;;
6651;SDS011;3362;50.892;10.692;2023-01-28T09:00:18;4.60;;;2.28;;
6651;SDS011;3362;50.892;10.692;2023-01-28T09:02:44;2.10;;;1.83;;
6651;SDS011;3362;50.892;10.692;2023-01-28T09:05:11;3.58;;;1.85;;
6651;SDS011;3362;50.892;10.692;2023-01-28T09:07:37;7.43;;;2.47;;
6651;SDS011;3362;50.892;10.692;2023-01-28T09:10:04;3.38;;;2.75;;
6651;SDS011;3362;50.892;10.692;2023-01-28T09:12:30;6.47;;;1.85;;
6651;SDS011;3362;50.892;10.692;2023-01-28T09:14:58;3.47;;;2.20;;
6651;SDS011;3362;50.892;10.692;2023-01-28T09:17:24;3.63;;;1.85;;
6651;SDS011;3362;50.892;10.692;2023-01-28T09:19:50;5.13;;;2.70;;
6651;SDS011;3362;50.892;10.692;2023-01-28T09:22:16;4.20;;;2.67;;
6651;SDS011;3362;50.892;10.692;2023-01-28T09:24:43;5.87;;;2.80;;
6651;SDS011;3362;50.892;10.692;2023-01-28T09:27:09;8.13;;;2.70;;
6651;SDS011;3362;50.892;10.692;2023-01-28T09:29:35;6.10;;;2.30;;
6651;SDS011;3362;50.892;10.692;2023-01-28T09:32:04;8.00;;;3.15;;
6651;SDS011;3362;50.892;10.692;2023-01-28T09:34:31;5.40;;;2.92;;
6651;SDS011;3362;50.892;10.692;2023-01-28T09:36:57;7.43;;;2.53;;
6651;SDS011;3362;50.892;10.692;2023-01-28T09:39:23;4.30;;;2.22;;
6651;SDS011;3362;50.892;10.692;2023-01-28T09:41:54;5.70;;;2.80;;
6651;SDS011;3362;50.892;10.692;2023-01-28T09:44:25;2.70;;;1.42;;
6651;SDS011;3362;50.892;10.692;2023-01-28T09:46:59;6.25;;;1.95;;
6651;SDS011;3362;50.892;10.692;2023-01-28T09:49:28;3.35;;;1.67;;
6651;SDS011;3362;50.892;10.692;2023-01-28T09:51:58;6.13;;;2.55;;
6651;SDS011;3362;50.892;10.692;2023-01-28T09:54:26;3.83;;;1.83;;
6651;SDS011;3362;50.892;10.692;2023-01-28T09:56:55;3.28;;;2.00;;
6651;SDS011;3362;50.892;10.692;2023-01-28T09:59:26;2.78;;;1.90;;
6651;SDS011;3362;50.892;10.692;2023-01-28T10:01:53;2.78;;;2.40;;
6651;SDS011;3362;50.892;10.692;2023-01-28T10:04:24;5.35;;;2.10;;
6651;SDS011;3362;50.892;10.692;2023-01-28T10:06:55;5.28;;;2.05;;
6651;SDS011;3362;50.892;10.692;2023-01-28T10:09:27;4.45;;;2.10;;
6651;SDS011;3362;50.892;10.692;2023-01-28T10:12:02;2.38;;;1.77;;
6651;SDS011;3362;50.892;10.692;2023-01-28T10:14:33;2.65;;;1.75;;
6651;SDS011;3362;50.892;10.692;2023-01-28T10:17:03;3.67;;;1.70;;
6651;SDS011;3362;50.892;10.692;2023-01-28T10:19:32;4.07;;;1.90;;
6651;SDS011;3362;50.892;10.692;2023-01-28T10:22:02;5.80;;;2.17;;
6651;SDS011;3362;50.892;10.692;2023-01-28T10:24:30;3.35;;;1.80;;
6651;SDS011;3362;50.892;10.692;2023-01-28T10:26:58;4.97;;;2.58;;
6651;SDS011;3362;50.892;10.692;2023-01-28T10:29:26;3.83;;;2.78;;
6651;SDS011;3362;50.892;10.692;2023-01-28T10:31:52;3.35;;;2.70;;
6651;SDS011;3362;50.892;10.692;2023-01-28T10:34:19;3.88;;;2.72;;
6651;SDS011;3362;50.892;10.692;2023-01-28T10:36:45;3.03;;;2.35;;
6651;SDS011;3362;50.892;10.692;2023-01-28T10:39:13;4.88;;;2.05;;
6651;SDS011;3362;50.892;10.692;2023-01-28T10:41:40;3.08;;;2.22;;
6651;SDS011;3362;50.892;10.692;2023-01-28T10:44:08;4.95;;;2.25;;
6651;SDS011;3362;50.892;10.692;2023-01-28T10:46:38;6.78;;;3.00;;
6651;SDS011;3362;50.892;10.692;2023-01-28T10:49:06;6.35;;;3.40;;
6651;SDS011;3362;50.892;10.692;2023-01-28T10:51:37;4.22;;;3.60;;
6651;SDS011;3362;50.892;10.692;2023-01-28T10:54:16;6.70;;;3.20;;
6651;SDS011;3362;50.892;10.692;2023-01-28T10:56:43;7.35;;;3.38;;
6651;SDS011;3362;50.892;10.692;2023-01-28T10:59:17;7.47;;;3.90;;
6651;SDS011;3362;50.892;10.692;2023-01-28T11:01:44;8.43;;;3.90;;
6651;SDS011;3362;50.892;10.692;2023-01-28T11:04:14;5.45;;;3.13;;
6651;SDS011;3362;50.892;10.692;2023-01-28T11:06:42;4.72;;;2.88;;
6651;SDS011;3362;50.892;10.692;2023-01-28T11:09:21;4.07;;;2.28;;
6651;SDS011;3362;50.892;10.692;2023-01-28T11:11:47;2.85;;;2.15;;
6651;SDS011;3362;50.892;10.692;2023-01-28T11:14:18;2.50;;;1.95;;
6651;SDS011;3362;50.892;10.692;2023-01-28T11:16:44;3.80;;;2.33;;
6651;SDS011;3362;50.892;10.692;2023-01-28T11:19:11;5.20;;;2.92;;
6651;SDS011;3362;50.892;10.692;2023-01-28T11:21:37;7.68;;;3.13;;
6651;SDS011;3362;50.892;10.692;2023-01-28T11:24:04;7.75;;;3.55;;
6651;SDS011;3362;50.892;10.692;2023-01-28T11:26:33;6.13;;;3.15;;
6651;SDS011;3362;50.892;10.692;2023-01-28T11:29:01;4.30;;;2.38;;
6651;SDS011;3362;50.892;10.692;2023-01-28T11:31:27;4.47;;;3.22;;
6651;SDS011;3362;50.892;10.692;2023-01-28T11:33:54;4.50;;;2.63;;
6651;SDS011;3362;50.892;10.692;2023-01-28T11:36:22;6.57;;;2.60;;
6651;SDS011;3362;50.892;10.692;2023-01-28T11:38:50;4.97;;;2.40;;
6651;SDS011;3362;50.892;10.692;2023-01-28T11:41:17;5.13;;;2.25;;
6651;SDS011;3362;50.892;10.692;2023-01-28T11:43:45;3.60;;;2.17;;
6651;SDS011;3362;50.892;10.692;2023-01-28T11:46:21;4.47;;;2.08;;
6651;SDS011;3362;50.892;10.692;2023-01-28T11:48:54;3.10;;;1.58;;
6651;SDS011;3362;50.892;10.692;2023-01-28T11:51:29;2.15;;;1.50;;
6651;SDS011;3362;50.892;10.692;2023-01-28T11:56:48;3.00;;;1.45;;
6651;SDS011;3362;50.892;10.692;2023-01-28T11:59:23;2.47;;;1.60;;
6651;SDS011;3362;50.892;10.692;2023-01-28T12:01:55;5.00;;;2.47;;
6651;SDS011;3362;50.892;10.692;2023-01-28T12:04:24;1.90;;;1.48;;
6651;SDS011;3362;50.892;10.692;2023-01-28T12:07:03;4.03;;;2.72;;
6651;SDS011;3362;50.892;10.692;2023-01-28T12:09:34;10.30;;;2.90;;
6651;SDS011;3362;50.892;10.692;2023-01-28T12:12:10;3.25;;;1.88;;
6651;SDS011;3362;50.892;10.692;2023-01-28T12:14:52;4.07;;;2.22;;
6651;SDS011;3362;50.892;10.692;2023-01-28T12:17:24;3.83;;;2.10;;
6651;SDS011;3362;50.892;10.692;2023-01-28T12:19:54;3.75;;;2.30;;
6651;SDS011;3362;50.892;10.692;2023-01-28T12:22:35;3.50;;;1.95;;
6651;SDS011;3362;50.892;10.692;2023-01-28T12:25:08;6.85;;;2.20;;
6651;SDS011;3362;50.892;10.692;2023-01-28T12:27:41;3.35;;;1.77;;
6651;SDS011;3362;50.892;10.692;2023-01-28T12:30:13;3.40;;;1.60;;
6651;SDS011;3362;50.892;10.692;2023-01-28T12:32:48;4.30;;;1.73;;
6651;SDS011;3362;50.892;10.692;2023-01-28T12:35:23;6.82;;;1.65;;
6651;SDS011;3362;50.892;10.692;2023-01-28T12:37:58;2.40;;;1.00;;
6651;SDS011;3362;50.892;10.692;2023-01-28T12:40:32;1.33;;;0.93;;
6651;SDS011;3362;50.892;10.692;2023-01-28T12:43:02;2.33;;;1.05;;
6651;SDS011;3362;50.892;10.692;2023-01-28T12:45:32;3.20;;;1.40;;
6651;SDS011;3362;50.892;10.692;2023-01-28T12:48:03;2.65;;;1.63;;
6651;SDS011;3362;50.892;10.692;2023-01-28T12:50:35;3.33;;;1.85;;
6651;SDS011;3362;50.892;10.692;2023-01-28T12:53:08;7.05;;;2.70;;
6651;SDS011;3362;50.892;10.692;2023-01-28T12:55:40;4.30;;;2.50;;
6651;SDS011;3362;50.892;10.692;2023-01-28T12:58:11;4.75;;;2.50;;
6651;SDS011;3362;50.892;10.692;2023-01-28T13:00:42;5.72;;;2.35;;
6651;SDS011;3362;50.892;10.692;2023-01-28T13:03:13;4.38;;;2.42;;
6651;SDS011;3362;50.892;10.692;2023-01-28T13:05:43;4.22;;;1.83;;
6651;SDS011;3362;50.892;10.692;2023-01-28T13:08:12;6.15;;;1.65;;
6651;SDS011;3362;50.892;10.692;2023-01-28T13:10:43;1.25;;;1.15;;
6651;SDS011;3362;50.892;10.692;2023-01-28T13:13:12;1.73;;;1.05;;
6651;SDS011;3362;50.892;10.692;2023-01-28T13:15:42;2.15;;;1.77;;
6651;SDS011;3362;50.892;10.692;2023-01-28T13:20:51;1.63;;;1.30;;
6651;SDS011;3362;50.892;10.692;2023-01-28T13:23:21;2.43;;;1.43;;
6651;SDS011;3362;50.892;10.692;2023-01-28T13:25:48;1.80;;;0.98;;
6651;SDS011;3362;50.892;10.692;2023-01-28T13:28:23;1.08;;;0.98;;
6651;SDS011;3362;50.892;10.692;2023-01-28T13:30:51;3.78;;;1.15;;
6651;SDS011;3362;50.892;10.692;2023-01-28T13:33:27;1.42;;;1.20;;
6651;SDS011;3362;50.892;10.692;2023-01-28T13:35:53;3.30;;;1.83;;
6651;SDS011;3362;50.892;10.692;2023-01-28T13:38:20;2.42;;;1.50;;
6651;SDS011;3362;50.892;10.692;2023-01-28T13:40:52;2.47;;;1.80;;
6651;SDS011;3362;50.892;10.692;2023-01-28T13:43:25;1.90;;;1.33;;
6651;SDS011;3362;50.892;10.692;2023-01-28T13:45:57;1.52;;;1.35;;
6651;SDS011;3362;50.892;10.692;2023-01-28T13:48:26;2.10;;;1.25;;
6651;SDS011;3362;50.892;10.692;2023-01-28T13:50:54;3.78;;;1.58;;
6651;SDS011;3362;50.892;10.692;2023-01-28T13:53:23;2.10;;;1.40;;
6651;SDS011;3362;50.892;10.692;2023-01-28T13:55:50;4.53;;;1.45;;
6651;SDS011;3362;50.892;10.692;2023-01-28T13:58:30;3.83;;;1.40;;
6651;SDS011;3362;50.892;10.692;2023-01-28T14:03:49;2.20;;;1.52;;
6651;SDS011;3362;50.892;10.692;2023-01-28T14:06:22;2.45;;;1.65;;
6651;SDS011;3362;50.892;10.692;2023-01-28T14:08:56;4.90;;;1.40;;
6651;SDS011;3362;50.892;10.692;2023-01-28T14:11:32;1.90;;;1.45;;
6651;SDS011;3362;50.892;10.692;2023-01-28T14:14:19;2.93;;;1.20;;
6651;SDS011;3362;50.892;10.692;2023-01-28T14:16:50;2.45;;;1.38;;
6651;SDS011;3362;50.892;10.692;2023-01-28T14:19:21;4.97;;;1.80;;
6651;SDS011;3362;50.892;10.692;2023-01-28T14:21:50;3.77;;;1.37;;
6651;SDS011;3362;50.892;10.692;2023-01-28T14:24:17;1.40;;;1.30;;
6651;SDS011;3362;50.892;10.692;2023-01-28T14:26:45;1.98;;;1.52;;
6651;SDS011;3362;50.892;10.692;2023-01-28T14:29:17;2.45;;;1.77;;
6651;SDS011;3362;50.892;10.692;2023-01-28T14:31:47;1.97;;;1.57;;
6651;SDS011;3362;50.892;10.692;2023-01-28T14:34:16;2.43;;;1.50;;
6651;SDS011;3362;50.892;10.692;2023-01-28T14:36:45;1.57;;;1.30;;
6651;SDS011;3362;50.892;10.692;2023-01-28T14:39:16;3.45;;;2.13;;
6651;SDS011;3362;50.892;10.692;2023-01-28T14:41:43;2.83;;;1.83;;
6651;SDS011;3362;50.892;10.692;2023-01-28T14:44:11;4.50;;;2.00;;
6651;SDS011;3362;50.892;10.692;2023-01-28T14:46:39;4.28;;;2.10;;
6651;SDS011;3362;50.892;10.692;2023-01-28T14:49:15;5.97;;;2.17;;
6651;SDS011;3362;50.892;10.692;2023-01-28T14:52:03;5.73;;;2.53;;
6651;SDS011;3362;50.892;10.692;2023-01-28T14:54:36;2.90;;;2.05;;
6651;SDS011;3362;50.892;10.692;2023-01-28T14:57:14;3.78;;;1.80;;
6651;SDS011;3362;50.892;10.692;2023-01-28T14:59:44;4.13;;;1.67;;
6651;SDS011;3362;50.892;10.692;2023-01-28T15:02:16;2.80;;;1.73;;
6651;SDS011;3362;50.892;10.692;2023-01-28T15:04:42;5.60;;;3.17;;
6651;SDS011;3362;50.892;10.692;2023-01-28T15:07:16;3.30;;;2.25;;
6651;SDS011;3362;50.892;10.692;2023-01-28T15:09:42;4.13;;;2.45;;
6651;SDS011;3362;50.892;10.692;2023-01-28T15:12:09;3.90;;;2.20;;
6651;SDS011;3362;50.892;10.692;2023-01-28T15:14:35;6.55;;;2.80;;
6651;SDS011;3362;50.892;10.692;2023-01-28T15:17:02;7.93;;;2.70;;
6651;SDS011;3362;50.892;10.692;2023-01-28T15:19:29;3.85;;;2.85;;
6651;SDS011;3362;50.892;10.692;2023-01-28T15:21:56;4.60;;;2.47;;
6651;SDS011;3362;50.892;10.692;2023-01-28T15:24:24;2.63;;;2.00;;